createdAt,value
2019-06-26T00:01:11.781Z,19.23
2019-06-26T00:04:17.036Z,20.27
2019-06-26T00:07:21.976Z,19.83
2019-06-26T00:10:27.075Z,18.93
2019-06-26T00:13:32.184Z,19.53
2019-06-26T00:16:37.397Z,20.80
2019-06-26T00:19:42.349Z,19.90
2019-06-26T00:22:47.266Z,19.03
2019-06-26T00:25:52.133Z,20.90
2019-06-26T00:28:57.026Z,18.63
2019-06-26T00:32:02.029Z,19.50
2019-06-26T00:35:07.001Z,19.87
2019-06-26T00:38:11.865Z,18.90
2019-06-26T00:41:16.786Z,20.60
2019-06-26T00:44:21.879Z,20.23
2019-06-26T00:47:26.900Z,19.47
2019-06-26T00:50:31.930Z,20.60
2019-06-26T00:53:37.037Z,19.93
2019-06-26T00:56:42.003Z,21.20
2019-06-26T00:59:47.101Z,19.20
2019-06-26T01:02:52.169Z,19.00
2019-06-26T01:05:57.409Z,18.97
2019-06-26T01:09:02.347Z,18.83
2019-06-26T01:12:07.478Z,18.67
2019-06-26T01:15:12.826Z,19.40
2019-06-26T01:18:17.686Z,20.50
2019-06-26T01:21:22.782Z,19.67
2019-06-26T01:24:28.085Z,18.10
2019-06-26T01:27:33.079Z,19.93
2019-06-26T01:30:38.127Z,18.30
2019-06-26T01:33:43.249Z,20.97
2019-06-26T01:36:48.434Z,18.57
2019-06-26T01:39:53.542Z,18.60
2019-06-26T01:42:58.533Z,18.70
2019-06-26T01:46:03.635Z,19.47
2019-06-26T01:49:08.651Z,20.03
2019-06-26T01:52:13.624Z,19.43
2019-06-26T01:55:18.697Z,19.00
2019-06-26T01:58:23.665Z,19.47
2019-06-26T02:01:28.444Z,18.87
2019-06-26T02:04:33.125Z,20.07
2019-06-26T02:07:38.092Z,20.50
2019-06-26T02:10:42.801Z,18.93
2019-06-26T02:13:47.886Z,20.57
2019-06-26T02:16:52.684Z,18.53
2019-06-26T02:19:57.747Z,20.30
2019-06-26T02:23:02.769Z,19.57
2019-06-26T02:26:07.816Z,19.80
2019-06-26T02:29:12.735Z,19.33
2019-06-26T02:32:17.951Z,19.70
2019-06-26T02:35:22.946Z,17.87
2019-06-26T02:38:27.910Z,20.27
2019-06-26T02:41:32.913Z,18.80
2019-06-26T02:44:52.457Z,19.47
2019-06-26T02:47:44.614Z,19.03
2019-06-26T02:50:49.472Z,18.67
2019-06-26T02:53:54.391Z,18.40
2019-06-26T02:56:59.358Z,18.13
2019-06-26T03:00:04.919Z,19.17
2019-06-26T03:03:10.122Z,19.63
2019-06-26T03:06:15.054Z,19.77
2019-06-26T03:09:19.926Z,19.40
2019-06-26T03:12:24.881Z,19.50
2019-06-26T03:15:30.065Z,19.47
2019-06-26T03:18:35.024Z,20.70
2019-06-26T03:21:40.122Z,19.73
2019-06-26T03:24:45.103Z,19.90
2019-06-26T03:27:49.917Z,18.23
2019-06-26T03:30:54.878Z,17.80
2019-06-26T03:33:59.553Z,18.33
2019-06-26T03:37:04.836Z,18.20
2019-06-26T03:40:10.376Z,20.07
2019-06-26T03:43:15.345Z,18.20
2019-06-26T03:46:20.263Z,19.57
2019-06-26T03:49:25.243Z,19.63
2019-06-26T03:52:30.555Z,19.10
2019-06-26T03:55:35.597Z,17.93
2019-06-26T03:58:40.508Z,20.30
2019-06-26T04:01:45.457Z,19.77
2019-06-26T04:04:50.601Z,20.70
2019-06-26T04:07:55.562Z,19.60
2019-06-26T04:11:00.665Z,19.00
2019-06-26T04:14:05.769Z,20.93
2019-06-26T04:17:10.665Z,20.13
2019-06-26T04:20:15.641Z,17.13
2019-06-26T04:23:20.940Z,18.27
2019-06-26T04:26:25.922Z,18.63
2019-06-26T04:29:30.900Z,20.00
2019-06-26T04:32:36.290Z,19.43
2019-06-26T04:35:41.491Z,19.40
2019-06-26T04:38:46.380Z,19.47
2019-06-26T04:41:51.376Z,20.43
2019-06-26T04:44:56.513Z,18.80
2019-06-26T04:48:01.470Z,20.27
2019-06-26T04:51:06.592Z,19.50
2019-06-26T04:54:11.707Z,19.90
2019-06-26T04:57:16.685Z,19.93
2019-06-26T05:00:22.060Z,20.17
2019-06-26T05:03:27.192Z,21.47
2019-06-26T05:06:32.322Z,20.47
2019-06-26T05:09:37.400Z,21.27
2019-06-26T05:12:42.295Z,22.17
2019-06-26T05:15:47.530Z,22.90
2019-06-26T05:18:52.471Z,21.00
2019-06-26T05:21:57.744Z,20.83
2019-06-26T05:25:02.725Z,21.50
2019-06-26T05:28:08.588Z,21.50
2019-06-26T05:31:13.722Z,20.97
2019-06-26T05:34:18.723Z,19.70
2019-06-26T05:37:23.802Z,20.87
2019-06-26T05:40:28.842Z,21.03
2019-06-26T05:43:33.701Z,19.43
2019-06-26T05:46:38.671Z,20.67
2019-06-26T05:49:43.700Z,21.13
2019-06-26T05:52:48.837Z,20.97
2019-06-26T05:55:54.156Z,21.40
2019-06-26T05:58:59.080Z,21.00
2019-06-26T06:02:04.042Z,19.53
2019-06-26T06:05:09.089Z,20.20
2019-06-26T06:08:14.122Z,21.37
2019-06-26T06:11:18.989Z,20.10
2019-06-26T06:14:23.898Z,20.67
2019-06-26T06:17:28.959Z,20.10
2019-06-26T06:20:38.350Z,20.67
2019-06-26T06:23:43.921Z,19.87
2019-06-26T06:26:48.857Z,20.33
2019-06-26T06:29:53.706Z,18.77
2019-06-26T06:32:58.632Z,19.50
2019-06-26T06:36:03.705Z,19.13
2019-06-26T06:39:08.793Z,19.33
2019-06-26T06:42:13.776Z,18.90
2019-06-26T06:45:18.781Z,18.60
2019-06-26T06:48:23.841Z,17.93
2019-06-26T06:51:28.962Z,16.67
2019-06-26T06:54:33.934Z,19.23
2019-06-26T06:57:38.975Z,16.13
2019-06-26T07:00:44.247Z,17.47
2019-06-26T07:03:49.113Z,16.67
2019-06-26T07:06:54.170Z,17.27
2019-06-26T07:09:59.288Z,16.57
2019-06-26T07:13:04.272Z,18.10
2019-06-26T07:16:09.103Z,14.47
2019-06-26T07:19:14.021Z,14.07
2019-06-26T07:22:19.048Z,15.75
2019-06-26T07:25:24.193Z,16.25
2019-06-26T07:28:28.881Z,14.87
2019-06-26T07:31:33.597Z,14.65
2019-06-26T07:34:38.330Z,15.85
2019-06-26T07:37:43.030Z,15.28
2019-06-26T07:40:47.721Z,13.70
2019-06-26T07:43:52.439Z,16.67
2019-06-26T07:46:57.153Z,16.82
2019-06-26T07:50:02.010Z,14.13
2019-06-26T07:53:06.757Z,14.95
2019-06-26T07:56:11.578Z,15.28
2019-06-26T07:59:16.289Z,13.03
2019-06-26T08:02:21.096Z,14.68
2019-06-26T08:05:25.841Z,13.30
2019-06-26T08:08:30.621Z,14.63
2019-06-26T08:11:35.286Z,13.20
2019-06-26T08:14:40.010Z,15.97
2019-06-26T08:17:59.229Z,14.70
2019-06-26T08:21:07.464Z,15.83
2019-06-26T08:23:58.199Z,16.33
2019-06-26T08:27:02.975Z,16.57
2019-06-26T08:30:08.133Z,15.10
2019-06-26T08:33:12.914Z,16.43
2019-06-26T08:36:17.746Z,15.47
2019-06-26T08:39:22.423Z,15.63
2019-06-26T08:42:27.153Z,15.43
2019-06-26T08:45:31.955Z,14.87
2019-06-26T08:48:39.927Z,15.80
2019-06-26T08:51:43.238Z,14.10
2019-06-26T08:54:48.279Z,12.67
2019-06-26T08:57:53.276Z,13.13
2019-06-26T09:00:58.565Z,10.60
2019-06-26T09:04:03.614Z,11.17
2019-06-26T09:07:08.817Z,9.63
2019-06-26T09:10:16.784Z,11.37
2019-06-26T09:13:21.493Z,11.13
2019-06-26T09:16:26.595Z,11.53
2019-06-26T09:19:31.533Z,11.23
2019-06-26T09:22:36.638Z,9.93
2019-06-26T09:25:41.653Z,10.90
2019-06-26T09:28:46.510Z,9.47
2019-06-26T09:31:51.730Z,10.87
2019-06-26T09:34:56.595Z,9.07
2019-06-26T09:38:01.794Z,9.80
2019-06-26T09:41:06.944Z,11.20
2019-06-26T09:44:11.969Z,9.97
2019-06-26T09:47:16.986Z,11.30
2019-06-26T09:50:22.482Z,11.40
2019-06-26T09:53:27.553Z,10.13
2019-06-26T09:56:32.442Z,10.83
2019-06-26T09:59:37.506Z,10.13
2019-06-26T10:02:42.565Z,10.33
2019-06-26T10:05:47.617Z,9.73
2019-06-26T10:08:54.255Z,10.90
2019-06-26T10:11:59.643Z,10.40
2019-06-26T10:15:05.029Z,9.50
2019-06-26T10:18:10.076Z,9.27
2019-06-26T10:21:15.024Z,9.43
2019-06-26T10:24:20.177Z,9.30
2019-06-26T10:27:25.555Z,9.43
2019-06-26T10:30:30.638Z,9.47
2019-06-26T10:33:35.626Z,7.27
2019-06-26T10:36:40.677Z,8.10
2019-06-26T10:39:45.692Z,7.90
2019-06-26T10:42:50.969Z,8.60
2019-06-26T10:45:56.079Z,9.00
2019-06-26T10:49:01.078Z,8.63
2019-06-26T10:52:06.064Z,8.00
2019-06-26T10:55:11.564Z,7.47
2019-06-26T10:58:16.617Z,8.33
2019-06-26T11:01:22.283Z,8.20
2019-06-26T11:04:27.518Z,9.23
2019-06-26T11:07:36.257Z,9.20
2019-06-26T11:10:39.355Z,9.33
2019-06-26T11:13:44.439Z,7.63
2019-06-26T11:16:49.649Z,9.47
2019-06-26T11:19:55.708Z,7.50
2019-06-26T11:23:00.854Z,9.43
2019-06-26T11:26:05.893Z,9.57
2019-06-26T11:29:10.992Z,10.40
2019-06-26T11:32:15.982Z,10.20
2019-06-26T11:35:21.008Z,9.37
2019-06-26T11:38:25.890Z,8.60
2019-06-26T11:41:31.077Z,7.97
2019-06-26T11:44:36.215Z,7.70
2019-06-26T11:47:45.374Z,8.07
2019-06-26T11:50:48.397Z,6.80
2019-06-26T11:53:53.689Z,7.40
2019-06-26T11:56:58.726Z,5.87
2019-06-26T12:00:04.147Z,6.43
2019-06-26T12:03:13.009Z,7.30
2019-06-26T12:06:19.228Z,6.50
2019-06-26T12:09:22.863Z,7.90
2019-06-26T12:12:28.187Z,8.33
2019-06-26T12:15:33.111Z,7.53
2019-06-26T12:18:38.122Z,8.77
2019-06-26T12:21:43.235Z,7.80
2019-06-26T12:24:48.169Z,9.10
2019-06-26T12:27:53.574Z,8.00
2019-06-26T12:30:59.093Z,7.93
2019-06-26T12:34:04.049Z,7.43
2019-06-26T12:37:10.098Z,7.83
2019-06-26T12:40:16.310Z,7.83
2019-06-26T12:43:21.167Z,7.10
2019-06-26T12:46:26.223Z,8.13
2019-06-26T12:49:31.242Z,8.07
2019-06-26T12:52:36.175Z,7.87
2019-06-26T12:55:41.230Z,8.30
2019-06-26T12:58:49.191Z,8.63
2019-06-26T13:01:54.297Z,9.23
2019-06-26T13:04:59.421Z,8.63
2019-06-26T13:08:04.445Z,8.30
2019-06-26T13:11:09.423Z,8.60
2019-06-26T13:14:14.480Z,8.80
2019-06-26T13:17:19.518Z,11.77
2019-06-26T13:20:24.570Z,9.13
2019-06-26T13:23:29.565Z,9.07
2019-06-26T13:26:34.719Z,9.20
2019-06-26T13:29:39.814Z,9.40
2019-06-26T13:32:44.997Z,10.30
2019-06-26T13:35:50.288Z,9.50
2019-06-26T13:38:55.251Z,10.57
2019-06-26T13:42:00.278Z,9.30
2019-06-26T13:45:05.290Z,10.60
2019-06-26T13:48:10.241Z,9.77
2019-06-26T13:51:15.350Z,10.90
2019-06-26T13:54:20.366Z,10.67
2019-06-26T13:57:25.499Z,10.47
2019-06-26T14:00:30.549Z,10.03
2019-06-26T14:03:35.512Z,10.10
2019-06-26T14:06:40.677Z,10.70
2019-06-26T14:09:45.676Z,10.57
2019-06-26T14:12:50.517Z,10.67
2019-06-26T14:15:55.607Z,9.70
2019-06-26T14:19:00.629Z,10.87
2019-06-26T14:22:12.173Z,10.67
2019-06-26T14:25:16.123Z,10.77
2019-06-26T14:28:21.228Z,9.80
2019-06-26T14:31:26.256Z,10.50
2019-06-26T14:34:31.407Z,9.10
2019-06-26T14:37:36.846Z,10.40
2019-06-26T14:40:44.516Z,10.53
2019-06-26T14:43:52.729Z,10.80
2019-06-26T14:46:59.522Z,10.13
2019-06-26T14:50:04.658Z,10.57
2019-06-26T14:53:09.831Z,9.87
2019-06-26T14:56:14.797Z,9.47
2019-06-26T14:59:21.005Z,10.87
2019-06-26T15:02:26.272Z,10.57
2019-06-26T15:05:31.319Z,10.10
2019-06-26T15:08:36.795Z,9.57
2019-06-26T15:11:41.839Z,10.43
2019-06-26T15:14:46.960Z,10.23
2019-06-26T15:17:52.026Z,11.27
2019-06-26T15:20:57.231Z,10.50
2019-06-26T15:24:02.295Z,11.50
2019-06-26T15:27:08.712Z,10.90
2019-06-26T15:30:13.962Z,11.00
2019-06-26T15:33:19.053Z,10.50
2019-06-26T15:36:24.342Z,10.60
2019-06-26T15:39:30.709Z,10.60
2019-06-26T15:42:35.689Z,12.03
2019-06-26T15:45:41.196Z,12.37
2019-06-26T15:48:49.423Z,11.37
2019-06-26T15:51:52.961Z,12.27
2019-06-26T15:54:57.968Z,10.47
2019-06-26T15:58:03.250Z,10.67
2019-06-26T16:01:09.119Z,11.20
2019-06-26T16:04:14.169Z,12.10
2019-06-26T16:07:19.283Z,12.00
2019-06-26T16:10:24.361Z,12.53
2019-06-26T16:13:30.098Z,11.93
2019-06-26T16:16:36.927Z,11.03
2019-06-26T16:19:41.837Z,12.20
2019-06-26T16:22:46.954Z,11.47
2019-06-26T16:25:52.046Z,10.10
2019-06-26T16:28:57.778Z,12.03
2019-06-26T16:32:02.624Z,12.13
2019-06-26T16:35:12.095Z,12.07
2019-06-26T16:38:15.865Z,11.20
2019-06-26T16:41:20.960Z,12.20
2019-06-26T16:44:25.959Z,12.33
2019-06-26T16:47:31.335Z,12.43
2019-06-26T16:50:36.320Z,11.80
2019-06-26T16:53:41.348Z,11.43
2019-06-26T16:56:46.431Z,11.30
2019-06-26T17:00:05.035Z,13.07
2019-06-26T17:02:58.438Z,11.83
2019-06-26T17:06:03.526Z,11.53
2019-06-26T17:09:09.487Z,13.30
2019-06-26T17:12:14.751Z,11.63
2019-06-26T17:15:19.962Z,11.53
2019-06-26T17:18:25.186Z,12.33
2019-06-26T17:21:30.236Z,12.10
2019-06-26T17:24:35.437Z,12.60
2019-06-26T17:27:40.557Z,13.27
2019-06-26T17:30:45.764Z,12.97
2019-06-26T17:33:50.831Z,12.30
2019-06-26T17:36:56.771Z,14.03
2019-06-26T17:40:01.738Z,12.80
2019-06-26T17:43:12.179Z,13.67
2019-06-26T17:46:13.853Z,12.53
2019-06-26T17:49:19.419Z,14.60
2019-06-26T17:52:24.382Z,14.03
2019-06-26T17:55:29.654Z,13.40
2019-06-26T17:58:34.460Z,13.30
2019-06-26T18:01:39.244Z,14.20
2019-06-26T18:04:44.046Z,13.03
2019-06-26T18:07:48.894Z,13.60
2019-06-26T18:10:53.686Z,12.93
2019-06-26T18:13:58.430Z,13.47
2019-06-26T18:17:03.577Z,16.47
2019-06-26T18:20:09.016Z,13.07
2019-06-26T18:23:14.068Z,16.93
2019-06-26T18:26:19.167Z,14.80
2019-06-26T18:29:24.225Z,12.35
2019-06-26T18:32:29.265Z,14.30
2019-06-26T18:35:34.309Z,14.00
2019-06-26T18:38:39.390Z,14.70
2019-06-26T18:41:44.265Z,13.50
2019-06-26T18:44:49.500Z,13.47
2019-06-26T18:47:54.641Z,15.00
2019-06-26T18:50:59.590Z,14.57
2019-06-26T18:54:05.561Z,15.20
2019-06-26T18:57:10.415Z,13.20
2019-06-26T19:00:16.373Z,14.93
2019-06-26T19:03:21.586Z,15.13
2019-06-26T19:06:26.559Z,14.17
2019-06-26T19:09:31.640Z,15.37
2019-06-26T19:12:36.578Z,13.77
2019-06-26T19:15:41.526Z,13.47
2019-06-26T19:18:46.624Z,14.90
2019-06-26T19:21:51.757Z,14.70
2019-06-26T19:24:57.397Z,15.50
2019-06-26T19:28:02.489Z,15.33
2019-06-26T19:31:07.644Z,15.00
2019-06-26T19:34:12.897Z,15.07
2019-06-26T19:37:18.147Z,15.47
2019-06-26T19:40:24.279Z,16.87
2019-06-26T19:43:29.627Z,15.60
2019-06-26T19:46:34.780Z,16.20
2019-06-26T19:49:40.284Z,16.20
2019-06-26T19:52:45.851Z,16.40
2019-06-26T19:55:50.828Z,17.30
2019-06-26T19:58:56.514Z,17.80
2019-06-26T20:02:01.720Z,16.53
2019-06-26T20:05:06.948Z,16.40
2019-06-26T20:08:12.067Z,15.67
2019-06-26T20:11:17.046Z,15.97
2019-06-26T20:14:23.189Z,16.87
2019-06-26T20:17:28.363Z,17.30
2019-06-26T20:20:33.476Z,17.40
2019-06-26T20:23:38.730Z,18.00
2019-06-26T20:26:43.657Z,16.53
2019-06-26T20:29:48.778Z,16.40
2019-06-26T20:32:53.757Z,16.20
2019-06-26T20:35:58.800Z,17.30
2019-06-26T20:39:04.864Z,19.13
2019-06-26T20:42:09.736Z,17.20
2019-06-26T20:45:15.485Z,17.17
2019-06-26T20:48:20.469Z,18.10
2019-06-26T20:51:25.451Z,16.27
2019-06-26T20:54:30.495Z,16.97
2019-06-26T20:57:35.546Z,18.80
2019-06-26T21:00:40.636Z,19.70
2019-06-26T21:03:45.638Z,16.30
2019-06-26T21:06:50.663Z,17.00
2019-06-26T21:09:55.710Z,17.37
2019-06-26T21:13:00.694Z,17.27
2019-06-26T21:16:05.731Z,18.93
2019-06-26T21:19:10.683Z,16.70
2019-06-26T21:22:15.839Z,15.70
2019-06-26T21:25:20.868Z,17.63
2019-06-26T21:28:26.083Z,16.87
2019-06-26T21:31:31.405Z,17.57
2019-06-26T21:34:36.442Z,17.37
2019-06-26T21:37:41.707Z,17.07
2019-06-26T21:40:47.100Z,17.17
2019-06-26T21:43:51.993Z,17.53
2019-06-26T21:46:57.169Z,16.67
2019-06-26T21:50:02.496Z,17.67
2019-06-26T21:53:07.488Z,17.13
2019-06-26T21:56:12.612Z,18.00
2019-06-26T21:59:17.407Z,17.57
2019-06-26T22:02:22.444Z,18.37
2019-06-26T22:05:27.681Z,17.00
2019-06-26T22:08:32.815Z,17.77
2019-06-26T22:11:38.059Z,17.53
2019-06-26T22:14:42.992Z,17.07
2019-06-26T22:17:48.153Z,16.70
2019-06-26T22:20:53.107Z,18.60
2019-06-26T22:23:58.232Z,19.30
2019-06-26T22:27:03.086Z,17.73
2019-06-26T22:30:08.917Z,17.83
2019-06-26T22:33:13.966Z,17.50
2019-06-26T22:36:19.207Z,17.73
2019-06-26T22:39:24.145Z,18.23
2019-06-26T22:42:29.401Z,19.30
2019-06-26T22:45:34.251Z,19.90
2019-06-26T22:48:39.291Z,17.07
2019-06-26T22:51:44.370Z,18.07
2019-06-26T22:54:49.331Z,18.53
2019-06-26T22:57:54.455Z,17.93
2019-06-26T23:00:59.594Z,16.87
2019-06-26T23:04:04.537Z,18.47
2019-06-26T23:07:09.448Z,18.77
2019-06-26T23:10:14.924Z,18.23
2019-06-26T23:13:20.081Z,18.57
2019-06-26T23:16:25.050Z,17.90
2019-06-26T23:19:30.104Z,18.43
2019-06-26T23:22:35.270Z,19.23
2019-06-26T23:25:40.365Z,18.10
2019-06-26T23:28:45.283Z,18.33
2019-06-26T23:31:50.361Z,18.47
2019-06-26T23:34:55.367Z,18.47
2019-06-26T23:38:00.535Z,18.87
2019-06-26T23:41:05.553Z,19.73
2019-06-26T23:44:10.787Z,17.87
2019-06-26T23:47:15.803Z,19.90
2019-06-26T23:50:21.066Z,18.57
2019-06-26T23:53:26.017Z,19.40
2019-06-26T23:56:39.975Z,18.30
2019-06-26T23:59:37.520Z,19.97
